Time;durP1;ratioP1;P1;durP2;ratioP2;P2;SDS_P1;SDS_P2;PMS_P1;PMS_P2;Temp;Humidity;BMP_temperature;BMP_pressure;BME280_temperature;BME280_humidity;BME280_pressure;Samples;Min_cycle;Max_cycle;Signal;HPM_P1;HPM_P2
2022/03/22 00:00:20;;;;;;;15.88;9.68;;;;;;;7.74;68.56;101012.13;4953002;28;20471;-66
2022/03/22 00:02:45;;;;;;;17.30;10.32;;;;;;;7.75;68.56;101016.47;4953728;28;20043;-66
2022/03/22 00:05:11;;;;;;;14.90;9.68;;;;;;;7.73;68.37;101011.25;4953398;28;20042;-67
2022/03/22 00:07:36;;;;;;;12.05;8.85;;;;;;;7.73;68.89;101010.41;4953648;28;20499;-67
2022/03/22 00:10:03;;;;;;;15.00;10.02;;;;;;;7.70;68.86;101011.31;4935568;28;20027;-66
2022/03/22 00:12:28;;;;;;;15.15;9.98;;;;;;;7.62;69.36;101018.44;4952594;28;20066;-68
2022/03/22 00:14:54;;;;;;;17.27;11.52;;;;;;;7.58;69.58;101013.28;4953181;28;20058;-67
2022/03/22 00:17:20;;;;;;;18.75;12.15;;;;;;;7.50;70.06;101011.63;4953048;28;20039;-68
2022/03/22 00:19:45;;;;;;;14.25;9.70;;;;;;;7.50;69.78;101022.13;4953331;28;20050;-67
2022/03/22 00:22:11;;;;;;;16.15;10.40;;;;;;;7.50;69.17;101019.50;4951823;28;20043;-67
2022/03/22 00:24:36;;;;;;;13.10;9.50;;;;;;;7.45;69.91;101013.47;4952861;28;20367;-66
2022/03/22 00:27:02;;;;;;;16.40;10.75;;;;;;;7.41;70.09;101024.03;4952905;28;20063;-67
2022/03/22 00:29:27;;;;;;;21.40;8.57;;;;;;;7.39;69.88;101018.84;4952944;28;20042;-67
2022/03/22 00:31:53;;;;;;;19.98;11.57;;;;;;;7.36;69.89;101025.88;4935209;28;20525;-66
2022/03/22 00:34:18;;;;;;;18.13;11.27;;;;;;;7.29;70.30;101014.63;4952777;28;20047;-67
2022/03/22 00:36:45;;;;;;;14.25;11.25;;;;;;;7.27;69.98;101022.53;4935985;29;20058;-67
2022/03/22 00:39:11;;;;;;;15.13;11.15;;;;;;;7.17;70.42;101025.31;4952184;28;20039;-66
2022/03/22 00:41:36;;;;;;;16.52;12.00;;;;;;;7.06;70.68;101018.50;4952139;28;20126;-66
2022/03/22 00:44:02;;;;;;;14.93;10.88;;;;;;;7.05;70.99;101023.75;4952909;28;20023;-67
2022/03/22 00:46:27;;;;;;;17.20;11.77;;;;;;;7.00;70.94;101021.19;4952730;28;20085;-66
2022/03/22 00:48:52;;;;;;;20.38;11.10;;;;;;;6.97;71.35;101023.84;4952991;28;20591;-65
2022/03/22 00:51:18;;;;;;;18.33;12.40;;;;;;;6.93;71.21;101014.28;4952705;28;20047;-65
2022/03/22 00:53:45;;;;;;;20.33;12.57;;;;;;;6.90;71.32;101024.81;4954036;28;20046;-66
2022/03/22 00:56:10;;;;;;;16.33;10.77;;;;;;;6.94;71.23;101023.03;4952966;28;20039;-65
2022/03/22 00:58:36;;;;;;;24.52;15.85;;;;;;;6.88;71.51;101016.13;4942841;28;20135;-65
2022/03/22 01:01:01;;;;;;;19.67;13.93;;;;;;;6.77;72.13;101028.50;4953848;28;20023;-66
2022/03/22 01:03:28;;;;;;;23.08;13.43;;;;;;;6.71;72.31;101026.81;4957784;28;20595;-66
2022/03/22 01:05:54;;;;;;;15.32;10.88;;;;;;;6.70;72.46;101021.63;4954482;28;20120;-67
2022/03/22 01:08:19;;;;;;;17.95;12.73;;;;;;;6.70;72.35;101021.63;4954095;28;20090;-66
2022/03/22 01:10:52;;;;;;;17.75;12.38;;;;;;;6.69;72.19;101015.50;4953561;28;20035;-66
2022/03/22 01:13:18;;;;;;;16.25;12.57;;;;;;;6.66;72.52;101019.03;4936363;29;20416;-65
2022/03/22 01:15:44;;;;;;;17.77;11.95;;;;;;;6.59;72.27;101021.75;4952632;29;20047;-65
2022/03/22 01:18:10;;;;;;;19.67;12.38;;;;;;;6.55;72.74;101020.94;4952224;29;20560;-66
2022/03/22 01:20:39;;;;;;;21.63;11.88;;;;;;;6.53;72.77;101012.22;4951397;29;20542;-67
2022/03/22 01:23:07;;;;;;;20.85;12.85;;;;;;;6.55;72.56;101020.06;4951412;29;20534;-67
2022/03/22 01:25:34;;;;;;;21.08;13.00;;;;;;;6.52;72.27;101015.75;4951910;29;20483;-66
2022/03/22 01:28:02;;;;;;;20.63;12.45;;;;;;;6.51;72.07;101015.75;4952161;29;20069;-66
2022/03/22 01:30:29;;;;;;;16.20;11.82;;;;;;;6.44;72.30;101010.56;4951502;28;20035;-67
2022/03/22 01:32:55;;;;;;;19.13;12.43;;;;;;;6.41;72.82;101012.38;4951653;28;20034;-68
2022/03/22 01:35:22;;;;;;;15.98;11.40;;;;;;;6.41;72.98;101002.75;4951692;28;20039;-67
2022/03/22 01:37:48;;;;;;;21.02;13.32;;;;;;;6.41;72.66;101007.13;4952120;28;20038;-67
2022/03/22 01:40:15;;;;;;;24.08;12.80;;;;;;;6.41;72.90;101015.00;4951246;28;20543;-65
2022/03/22 01:42:41;;;;;;;19.70;12.63;;;;;;;6.39;72.85;101008.91;4949653;28;20035;-68
2022/03/22 01:45:10;;;;;;;27.63;14.50;;;;;;;6.40;72.51;101013.28;4951669;28;20102;-66
2022/03/22 01:47:38;;;;;;;18.20;12.10;;;;;;;6.38;72.73;101009.81;4951653;28;20036;-65
2022/03/22 01:50:05;;;;;;;18.27;13.05;;;;;;;6.32;73.01;101013.34;4951134;28;20123;-66
2022/03/22 01:52:37;;;;;;;18.60;13.20;;;;;;;6.26;72.99;101010.81;4951266;28;20070;-67
2022/03/22 01:55:03;;;;;;;19.55;13.95;;;;;;;6.26;72.98;101007.34;4951394;28;20039;-65
2022/03/22 01:57:30;;;;;;;13.23;11.13;;;;;;;6.23;73.26;101009.09;4951617;28;20036;-66
2022/03/22 01:59:56;;;;;;;16.33;12.40;;;;;;;6.23;73.36;101003.00;4951469;28;20043;-66
2022/03/22 02:07:54;;;;;;;15.77;12.15;;;;;;;6.16;73.41;100993.47;4951377;28;20085;-65
2022/03/22 02:10:19;;;;;;;18.33;14.20;;;;;;;6.14;73.22;100988.25;4951432;28;20042;-67
2022/03/22 02:12:46;;;;;;;20.45;14.23;;;;;;;6.12;73.57;100992.63;4949938;28;20031;-67
2022/03/22 02:15:12;;;;;;;19.85;13.30;;;;;;;6.14;73.16;100987.38;4950686;28;20042;-67
2022/03/22 02:17:45;;;;;;;22.58;14.07;;;;;;;6.13;73.25;100985.63;4951894;28;20038;-66
2022/03/22 02:20:12;;;;;;;20.95;14.55;;;;;;;6.06;73.43;100989.25;4951306;28;20043;-66
2022/03/22 02:22:49;;;;;;;22.52;15.73;;;;;;;6.05;73.92;100990.09;4951224;28;20035;-65
2022/03/22 02:25:15;;;;;;;20.38;15.85;;;;;;;5.97;73.44;100988.44;4949443;28;20047;-67
2022/03/22 02:27:45;;;;;;;20.08;14.48;;;;;;;5.98;73.64;100986.69;4951719;29;20062;-67
2022/03/22 02:30:14;;;;;;;20.48;14.15;;;;;;;6.00;73.33;100987.53;4951009;29;20039;-66
2022/03/22 02:32:48;;;;;;;18.92;14.40;;;;;;;5.95;73.20;100984.97;4950603;29;20143;-66
2022/03/22 02:35:13;;;;;;;23.33;14.25;;;;;;;5.94;73.72;100988.47;4950652;29;20047;-66
2022/03/22 02:37:38;;;;;;;19.20;14.27;;;;;;;5.90;73.78;100985.88;4951549;29;20155;-67
2022/03/22 02:40:07;;;;;;;21.88;16.17;;;;;;;5.82;74.04;100991.19;4950367;29;20039;-67
2022/03/22 02:42:32;;;;;;;23.58;15.27;;;;;;;5.81;73.95;100981.63;4950348;28;20149;-67
2022/03/22 02:44:58;;;;;;;21.13;14.93;;;;;;;5.84;74.19;100986.81;4950907;29;20119;-66
2022/03/22 02:47:23;;;;;;;20.55;14.23;;;;;;;5.85;74.18;100985.06;4951191;29;20035;-67
2022/03/22 02:49:49;;;;;;;19.38;13.73;;;;;;;5.80;73.76;100975.50;4951166;29;20066;-66
2022/03/22 02:52:14;;;;;;;19.40;14.05;;;;;;;5.78;73.97;100976.41;4950494;29;20114;-66
2022/03/22 02:54:39;;;;;;;17.35;12.93;;;;;;;5.77;74.26;100983.38;4933932;29;20055;-65
2022/03/22 02:57:05;;;;;;;21.67;13.77;;;;;;;5.72;73.97;100987.78;4951076;29;20114;-67
2022/03/22 02:59:30;;;;;;;26.08;16.35;;;;;;;5.66;74.13;100987.88;4951238;29;20047;-65
2022/03/22 03:01:57;;;;;;;19.05;13.38;;;;;;;5.65;74.73;100988.75;4953571;28;20522;-67
2022/03/22 03:04:23;;;;;;;19.88;14.98;;;;;;;5.64;74.63;100980.94;4954862;29;20090;-67
2022/03/22 03:06:48;;;;;;;20.05;14.50;;;;;;;5.62;74.77;100986.16;4955038;29;20047;-67
2022/03/22 03:09:13;;;;;;;23.13;16.30;;;;;;;5.56;74.42;100979.25;4956427;29;20415;-66
2022/03/22 03:11:39;;;;;;;25.40;15.43;;;;;;;5.57;74.60;100987.94;4957778;29;20035;-64
2022/03/22 03:16:47;;;;;;;20.23;16.00;;;;;;;5.50;74.28;100987.13;4956442;29;20535;-65
2022/03/22 03:19:13;;;;;;;30.60;16.92;;;;;;;5.50;74.59;100989.75;4953599;29;20043;-66
2022/03/22 03:21:38;;;;;;;21.63;15.52;;;;;;;5.48;74.79;100986.28;4954089;29;20082;-65
2022/03/22 03:24:04;;;;;;;20.80;15.30;;;;;;;5.43;74.82;100985.44;4954342;29;20626;-66
2022/03/22 03:26:29;;;;;;;31.58;16.40;;;;;;;5.40;74.58;100993.31;4954041;29;20093;-65
2022/03/22 03:28:54;;;;;;;21.58;15.32;;;;;;;5.37;74.77;100989.00;4953978;28;20070;-66
2022/03/22 03:31:20;;;;;;;20.00;13.95;;;;;;;5.35;74.74;101000.34;4953474;28;20128;-65
2022/03/22 03:33:45;;;;;;;19.60;15.07;;;;;;;5.35;74.31;101000.34;4954242;28;20129;-66
2022/03/22 03:36:11;;;;;;;22.40;16.08;;;;;;;5.36;74.85;100991.63;4954275;28;20043;-65
2022/03/22 03:38:41;;;;;;;22.40;14.82;;;;;;;5.36;74.95;100997.69;4954231;28;20070;-65
2022/03/22 03:43:52;;;;;;;18.88;12.63;;;;;;;5.33;75.27;100997.75;4953700;28;20061;-66
2022/03/22 03:49:02;;;;;;;22.58;15.60;;;;;;;5.31;74.78;100996.88;4956455;28;20071;-66
2022/03/22 03:51:27;;;;;;;23.83;14.88;;;;;;;5.32;75.11;100996.00;4956668;28;20039;-66
2022/03/22 03:53:52;;;;;;;20.35;14.85;;;;;;;5.29;75.05;101003.00;4954576;28;20059;-66
2022/03/22 03:56:18;;;;;;;21.77;15.25;;;;;;;5.31;75.02;101002.09;4954173;28;20050;-66
2022/03/22 03:58:43;;;;;;;21.25;15.40;;;;;;;5.35;74.42;101009.06;4954461;28;20063;-65
2022/03/22 04:01:08;;;;;;;24.27;17.08;;;;;;;5.38;75.06;101008.16;4954319;28;20066;-65
2022/03/22 04:03:34;;;;;;;22.42;17.08;;;;;;;5.32;75.10;101003.00;4955062;28;20442;-66
2022/03/22 04:05:59;;;;;;;28.23;16.88;;;;;;;5.29;75.28;101009.13;4954243;28;20773;-66
2022/03/22 04:08:25;;;;;;;27.17;17.17;;;;;;;5.32;75.32;101005.63;4954322;28;20381;-66
2022/03/22 04:10:50;;;;;;;21.67;14.65;;;;;;;5.29;74.70;101010.84;4953981;28;20066;-66
2022/03/22 04:13:15;;;;;;;22.38;17.25;;;;;;;5.25;74.92;101011.75;4953482;28;20031;-65
2022/03/22 04:15:41;;;;;;;19.73;14.07;;;;;;;5.18;75.54;101012.69;4952912;28;20492;-67
2022/03/22 04:18:07;;;;;;;24.63;17.33;;;;;;;5.21;74.89;101013.53;4954546;28;20090;-66
2022/03/22 04:20:32;;;;;;;25.35;15.68;;;;;;;5.14;75.12;101019.66;4952818;28;20182;-66
2022/03/22 04:22:58;;;;;;;26.35;15.73;;;;;;;5.10;74.90;101015.38;4952839;28;20039;-66
2022/03/22 04:25:24;;;;;;;22.92;15.70;;;;;;;5.09;75.08;101011.00;4952552;28;20050;-66
2022/03/22 04:33:17;;;;;;;28.52;18.00;;;;;;;5.10;74.95;101011.00;4952468;28;20065;-66
2022/03/22 04:35:42;;;;;;;24.00;15.55;;;;;;;5.06;75.17;101011.03;4953502;28;20527;-65
2022/03/22 04:38:08;;;;;;;25.45;17.85;;;;;;;5.04;75.32;101012.78;4955336;28;20061;-65
2022/03/22 04:40:35;;;;;;;20.08;15.35;;;;;;;5.06;75.41;101011.88;4955085;28;20487;-66
2022/03/22 04:43:01;;;;;;;20.67;15.55;;;;;;;5.02;75.38;101014.53;4952699;28;20122;-65
2022/03/22 04:45:26;;;;;;;25.25;14.38;;;;;;;4.94;76.07;101014.56;4952844;28;20118;-64
2022/03/22 04:47:51;;;;;;;23.02;14.98;;;;;;;4.95;75.94;101016.31;4952827;28;20058;-66
2022/03/22 04:50:17;;;;;;;28.05;19.13;;;;;;;4.91;75.83;101022.44;4953428;28;20043;-65
2022/03/22 04:58:11;;;;;;;23.23;16.90;;;;;;;4.76;76.39;101019.94;4954051;28;20114;-65
2022/03/22 05:00:37;;;;;;;28.60;18.23;;;;;;;4.73;76.41;101018.19;4952208;28;20126;-65
2022/03/22 05:03:03;;;;;;;29.42;18.45;;;;;;;4.72;75.75;101021.66;4952165;28;20043;-66
2022/03/22 05:08:14;;;;;;;26.60;16.65;;;;;;;4.60;76.01;101025.19;4951984;28;20522;-67
2022/03/22 05:10:39;;;;;;;30.90;16.77;;;;;;;4.59;75.92;101026.09;4952221;28;20032;-66
2022/03/22 05:13:05;;;;;;;25.70;15.27;;;;;;;4.61;76.24;101029.56;4951805;28;20086;-66
2022/03/22 05:15:33;;;;;;;24.70;16.23;;;;;;;4.66;76.38;101030.41;4951969;28;20487;-66
2022/03/22 05:17:59;;;;;;;27.98;18.48;;;;;;;4.73;75.64;101028.66;4951805;28;20494;-66
2022/03/22 05:20:25;;;;;;;26.73;17.83;;;;;;;4.69;75.44;101027.78;4951689;28;20031;-66
2022/03/22 05:22:51;;;;;;;26.90;16.63;;;;;;;4.72;75.45;101027.75;4951949;28;20035;-65
2022/03/22 05:25:16;;;;;;;26.38;17.40;;;;;;;4.73;75.38;101026.91;4951195;28;20461;-66
2022/03/22 05:27:41;;;;;;;30.65;17.65;;;;;;;4.74;75.89;101022.53;4935682;29;20043;-64
2022/03/22 05:30:08;;;;;;;25.00;16.70;;;;;;;4.76;75.54;101033.00;4951602;28;20061;-65
2022/03/22 05:32:33;;;;;;;24.10;16.25;;;;;;;4.77;75.22;101032.97;4934395;28;20523;-65
2022/03/22 05:34:59;;;;;;;22.80;15.85;;;;;;;4.81;75.28;101033.84;4951598;28;20150;-65
2022/03/22 05:37:25;;;;;;;18.80;14.88;;;;;;;4.86;75.08;101039.91;4951903;28;20050;-66
2022/03/22 05:39:50;;;;;;;19.50;13.30;;;;;;;4.94;74.73;101041.56;4951650;28;20507;-65
2022/03/22 05:42:16;;;;;;;23.65;17.27;;;;;;;4.99;73.84;101045.91;4950632;28;20050;-66
2022/03/22 05:44:41;;;;;;;18.88;13.60;;;;;;;5.01;73.77;101047.63;4952343;28;20031;-65
2022/03/22 05:47:07;;;;;;;26.95;18.27;;;;;;;5.03;73.92;101055.47;4951854;28;20511;-66
2022/03/22 05:49:38;;;;;;;30.38;19.77;;;;;;;4.99;74.06;101038.06;4951647;28;20050;-67
2022/03/22 05:52:05;;;;;;;25.52;17.00;;;;;;;4.99;73.71;101044.16;4951289;28;20090;-66
2022/03/22 05:54:32;;;;;;;25.95;18.95;;;;;;;4.95;74.35;101040.72;4951750;28;20039;-66
2022/03/22 05:56:58;;;;;;;26.40;17.98;;;;;;;4.93;74.39;101039.84;4951768;28;20035;-66
2022/03/22 05:59:23;;;;;;;24.48;16.35;;;;;;;4.86;74.22;101039.91;4951621;28;20090;-66
2022/03/22 06:01:48;;;;;;;29.73;18.25;;;;;;;4.77;74.43;101047.78;4951126;28;20043;-67
2022/03/22 06:04:14;;;;;;;29.75;18.80;;;;;;;4.66;75.54;101050.44;4952014;28;20115;-66
2022/03/22 06:06:40;;;;;;;23.05;16.52;;;;;;;4.66;75.52;101051.31;4951893;28;20054;-66
2022/03/22 06:09:06;;;;;;;25.02;17.27;;;;;;;4.75;74.69;101053.03;4951777;28;20066;-67
2022/03/22 06:11:35;;;;;;;28.00;18.65;;;;;;;4.79;74.63;101048.63;4950933;28;20058;-65
2022/03/22 06:14:03;;;;;;;23.30;17.92;;;;;;;4.81;74.71;101058.22;4951890;28;20106;-67
2022/03/22 06:16:29;;;;;;;23.77;16.13;;;;;;;4.84;74.36;101057.31;4952064;28;20039;-66
2022/03/22 06:18:55;;;;;;;24.45;16.35;;;;;;;4.90;74.28;101066.00;4951603;28;20031;-66
2022/03/22 06:21:20;;;;;;;26.25;17.17;;;;;;;5.05;73.83;101064.19;4940215;28;20036;-67
2022/03/22 06:23:47;;;;;;;24.20;15.15;;;;;;;5.21;73.71;101060.56;4931738;29;20135;-66
2022/03/22 06:26:13;;;;;;;26.08;16.80;;;;;;;5.39;73.00;101059.59;4937814;28;20035;-66
2022/03/22 06:28:38;;;;;;;22.52;14.63;;;;;;;5.43;73.31;101058.69;4951371;28;20031;-65
2022/03/22 06:31:04;;;;;;;26.65;18.38;;;;;;;5.56;72.73;101062.94;4951244;28;20037;-66
2022/03/22 06:33:29;;;;;;;32.47;16.30;;;;;;;5.74;72.08;101053.22;4952233;28;20035;-66
2022/03/22 06:35:55;;;;;;;34.53;21.17;;;;;;;5.90;71.83;101062.63;4953201;28;20035;-67
2022/03/22 06:38:20;;;;;;;22.42;17.33;;;;;;;6.06;72.05;101060.78;4954082;28;20476;-65
2022/03/22 06:40:48;;;;;;;25.08;18.60;;;;;;;6.18;71.42;101062.41;4955296;28;20042;-66
2022/03/22 06:43:17;;;;;;;32.38;17.98;;;;;;;6.34;70.69;101071.81;4955298;28;20496;-66
2022/03/22 06:45:44;;;;;;;25.23;16.92;;;;;;;6.53;70.19;101069.84;4955462;28;20697;-67
2022/03/22 06:48:10;;;;;;;27.85;21.05;;;;;;;6.71;69.50;101074.00;4955535;28;20031;-66
2022/03/22 06:50:37;;;;;;;37.58;22.15;;;;;;;6.91;69.24;101073.72;4955075;28;20043;-67
2022/03/22 06:53:04;;;;;;;32.40;20.30;;;;;;;7.08;68.96;101071.75;4954351;28;20035;-66
2022/03/22 06:55:31;;;;;;;27.60;20.02;;;;;;;7.24;68.21;101063.69;4953596;28;20035;-68
2022/03/22 06:57:57;;;;;;;26.80;16.35;;;;;;;7.46;68.03;101072.09;4954801;28;20039;-66
2022/03/22 07:00:22;;;;;;;28.73;19.60;;;;;;;7.70;67.17;101073.44;4953549;28;20044;-65
2022/03/22 07:02:48;;;;;;;30.73;20.70;;;;;;;7.88;66.18;101074.91;4954816;28;20138;-67
2022/03/22 07:05:14;;;;;;;26.90;18.27;;;;;;;8.09;66.25;101071.00;4954410;28;20403;-66
2022/03/22 07:07:40;;;;;;;23.92;16.38;;;;;;;8.34;65.44;101080.19;4955033;28;20039;-67
2022/03/22 07:10:08;;;;;;;35.25;19.95;;;;;;;8.56;64.83;101078.00;4954500;28;20553;-66
2022/03/22 07:12:33;;;;;;;28.15;19.00;;;;;;;8.74;64.34;101070.66;4953980;28;20427;-67
2022/03/22 07:14:59;;;;;;;20.40;15.80;;;;;;;8.98;63.56;101075.38;4954565;28;20035;-67
2022/03/22 07:17:24;;;;;;;31.40;20.20;;;;;;;9.27;63.28;101071.22;4954462;28;20654;-66
2022/03/22 07:19:51;;;;;;;28.73;18.30;;;;;;;9.41;63.14;101079.66;4955140;28;20039;-65
2022/03/22 07:22:17;;;;;;;26.45;18.48;;;;;;;9.56;63.11;101082.84;4954350;28;20581;-66
2022/03/22 07:24:42;;;;;;;32.50;17.10;;;;;;;9.81;62.95;101078.69;4955417;28;20035;-65
2022/03/22 07:27:08;;;;;;;27.35;16.35;;;;;;;10.02;62.18;101077.28;4954560;28;20094;-67
2022/03/22 07:29:33;;;;;;;26.05;17.52;;;;;;;10.20;62.64;101085.59;4955040;28;20085;-65
2022/03/22 07:31:59;;;;;;;31.20;17.90;;;;;;;10.43;60.77;101085.00;4952847;28;20046;-65
2022/03/22 07:34:25;;;;;;;26.88;16.33;;;;;;;10.78;59.41;101091.03;4936840;28;20040;-66
2022/03/22 07:36:54;;;;;;;24.40;15.93;;;;;;;11.09;58.19;101086.56;4935313;28;20131;-66
2022/03/22 07:39:21;;;;;;;25.00;16.83;;;;;;;11.37;56.96;101080.44;4953310;28;20099;-67
2022/03/22 07:41:47;;;;;;;23.67;14.57;;;;;;;11.64;57.18;101086.63;4953218;28;20027;-66
2022/03/22 07:44:13;;;;;;;27.05;17.65;;;;;;;11.96;55.95;101082.06;4953797;28;20037;-67
2022/03/22 07:46:42;;;;;;;16.85;13.48;;;;;;;12.33;54.20;101076.38;4953883;28;20487;-67
2022/03/22 07:54:36;;;;;;;25.85;15.90;;;;;;;14.12;49.00;101073.72;4953926;28;20164;-66
2022/03/22 07:57:02;;;;;;;25.63;16.50;;;;;;;14.64;48.84;101075.88;4954232;28;20088;-69
2022/03/22 07:59:28;;;;;;;23.85;15.02;;;;;;;14.93;43.63;101086.97;4953748;28;20047;-66
2022/03/22 08:01:54;;;;;;;20.60;14.43;;;;;;;15.37;39.97;101078.69;4953112;28;20035;-66
2022/03/22 08:04:20;;;;;;;22.80;14.63;;;;;;;15.86;40.07;101089.59;4954014;28;20035;-66
2022/03/22 08:06:45;;;;;;;23.83;14.82;;;;;;;16.43;39.38;101082.19;4954221;28;20049;-65
2022/03/22 08:09:10;;;;;;;30.40;16.33;;;;;;;16.79;39.14;101085.66;4954153;28;20525;-66
2022/03/22 08:11:36;;;;;;;22.88;15.52;;;;;;;17.30;38.72;101083.69;4952949;28;20039;-68
2022/03/22 08:14:03;;;;;;;21.20;14.73;;;;;;;17.72;33.70;101080.41;4953083;28;20027;-67
2022/03/22 08:16:28;;;;;;;28.90;13.82;;;;;;;18.29;34.09;101084.19;4953551;28;20063;-67
2022/03/22 08:18:54;;;;;;;21.80;15.20;;;;;;;18.76;33.19;101085.78;4953252;28;20065;-69
2022/03/22 08:21:20;;;;;;;20.90;14.68;;;;;;;19.25;31.81;101078.16;4952648;28;20043;-67
2022/03/22 08:23:45;;;;;;;28.00;17.30;;;;;;;19.45;30.60;101084.88;4953311;28;20329;-66
2022/03/22 08:26:10;;;;;;;52.85;19.63;;;;;;;19.71;32.84;101079.63;4953388;28;20059;-66
2022/03/22 08:28:36;;;;;;;54.17;20.23;;;;;;;20.08;31.04;101083.38;4952118;28;20031;-66
2022/03/22 08:31:02;;;;;;;31.10;15.75;;;;;;;20.81;31.41;101079.22;4952049;29;20031;-65
2022/03/22 08:33:27;;;;;;;39.25;17.95;;;;;;;21.22;30.69;101080.75;4935528;29;20063;-66
2022/03/22 08:35:53;;;;;;;45.70;17.55;;;;;;;21.86;29.88;101075.94;4953008;29;20035;-66
2022/03/22 08:38:20;;;;;;;23.50;13.68;;;;;;;22.23;27.99;101070.47;4936164;29;20038;-67
2022/03/22 08:40:47;;;;;;;30.02;15.02;;;;;;;22.51;29.15;101074.53;4952775;29;20043;-66
2022/03/22 08:43:12;;;;;;;38.38;17.30;;;;;;;22.66;27.44;101069.75;4953317;28;20059;-66
2022/03/22 08:45:38;;;;;;;29.27;17.02;;;;;;;22.89;26.56;101072.47;4952875;29;20063;-66
2022/03/22 08:48:12;;;;;;;25.70;14.95;;;;;;;22.92;25.58;101066.84;4952939;29;20768;-66
2022/03/22 08:50:43;;;;;;;27.23;14.38;;;;;;;22.85;25.78;101069.16;4952503;29;20557;-68
2022/03/22 08:53:10;;;;;;;66.63;18.30;;;;;;;23.26;25.99;101067.66;4952632;29;20035;-67
2022/03/22 08:55:36;;;;;;;30.25;15.38;;;;;;;23.49;25.09;101060.38;4952326;29;20150;-66
2022/03/22 08:58:05;;;;;;;92.40;23.63;;;;;;;23.81;25.64;101062.22;4952417;28;20535;-67
2022/03/22 09:00:35;;;;;;;44.70;18.08;;;;;;;24.01;24.29;101055.13;4952413;29;20054;-66
2022/03/22 09:03:01;;;;;;;50.50;18.88;;;;;;;24.24;24.03;101054.97;4952931;29;20035;-65
2022/03/22 09:08:12;;;;;;;40.17;15.55;;;;;;;24.77;22.45;101052.16;4955890;29;20514;-66
2022/03/22 09:10:37;;;;;;;16.05;10.38;;;;;;;24.63;21.69;101043.44;4964584;29;20038;-67
2022/03/22 09:13:06;;;;;;;24.17;10.65;;;;;;;25.03;21.83;101044.41;4962377;29;20483;-66
2022/03/22 09:15:35;;;;;;;20.90;10.48;;;;;;;25.28;21.07;101043.94;4958620;29;20063;-66
2022/03/22 09:18:01;;;;;;;14.80;9.40;;;;;;;25.53;18.85;101040.84;4959531;29;20050;-66
2022/03/22 09:20:32;;;;;;;17.70;8.40;;;;;;;25.85;18.76;101038.72;4959697;29;20055;-65
2022/03/22 09:23:00;;;;;;;16.77;9.20;;;;;;;25.74;18.76;101046.06;4961800;29;20046;-66
2022/03/22 09:25:27;;;;;;;14.88;7.22;;;;;;;25.78;18.29;101039.41;4963416;29;20039;-66
2022/03/22 09:27:53;;;;;;;11.80;7.63;;;;;;;25.96;18.02;101037.69;4956807;29;20035;-66
2022/03/22 09:30:20;;;;;;;13.75;8.45;;;;;;;25.94;18.79;101025.31;4958989;29;20105;-67
2022/03/22 09:32:46;;;;;;;13.60;7.85;;;;;;;26.11;18.07;101030.84;4957114;29;20046;-67
2022/03/22 09:35:13;;;;;;;17.63;8.40;;;;;;;26.45;18.18;101024.88;4959251;29;20090;-67
2022/03/22 09:37:41;;;;;;;12.57;8.55;;;;;;;26.52;17.68;101025.16;4954430;29;20094;-66
2022/03/22 09:40:08;;;;;;;18.02;8.52;;;;;;;26.63;17.71;101025.00;4954732;29;20036;-66
2022/03/22 09:42:34;;;;;;;14.93;8.32;;;;;;;26.73;17.74;101020.41;4955887;29;20039;-65
2022/03/22 09:45:00;;;;;;;17.38;7.85;;;;;;;27.31;16.54;101018.34;4957185;29;20119;-65
2022/03/22 09:47:26;;;;;;;8.77;7.10;;;;;;;26.96;16.80;101028.09;4952034;28;20507;-66
2022/03/22 09:49:53;;;;;;;14.32;7.80;;;;;;;26.66;16.62;101029.25;4952255;28;20038;-66
2022/03/22 09:52:19;;;;;;;15.05;9.07;;;;;;;26.93;16.57;101017.56;4950918;28;20152;-66
2022/03/22 09:54:44;;;;;;;14.70;8.35;;;;;;;26.48;16.72;101021.03;4951434;28;20099;-66
2022/03/22 09:57:10;;;;;;;16.67;8.43;;;;;;;25.89;17.03;101018.53;4951799;28;20135;-67
2022/03/22 09:59:36;;;;;;;16.30;8.02;;;;;;;25.58;17.29;101019.66;4951468;28;20047;-67
2022/03/22 10:02:03;;;;;;;13.27;7.35;;;;;;;25.62;17.39;101019.22;4950668;28;20042;-67
2022/03/22 10:04:43;;;;;;;13.68;7.45;;;;;;;26.61;16.51;101020.75;4951575;28;20032;-66
2022/03/22 10:07:17;;;;;;;12.73;7.53;;;;;;;26.05;17.01;101017.06;4951276;28;20059;-67
2022/03/22 10:09:53;;;;;;;13.60;7.22;;;;;;;26.33;16.79;101020.66;4951314;28;20118;-66
2022/03/22 10:12:36;;;;;;;19.98;8.18;;;;;;;26.31;17.08;101006.44;4950305;28;20101;-66
2022/03/22 10:15:08;;;;;;;14.32;7.15;;;;;;;26.85;16.83;101012.06;4951256;28;20515;-67
2022/03/22 10:17:34;;;;;;;10.00;6.38;;;;;;;27.08;16.25;101013.34;4951110;28;20499;-67
2022/03/22 10:19:59;;;;;;;9.68;5.57;;;;;;;27.05;16.16;101004.66;4950420;28;20122;-68
2022/03/22 10:22:26;;;;;;;14.77;6.78;;;;;;;26.92;16.08;101007.75;4950856;29;20036;-67
2022/03/22 10:24:55;;;;;;;12.60;6.13;;;;;;;26.86;16.42;101000.25;4951322;29;20085;-67
2022/03/22 10:27:26;;;;;;;12.65;6.10;;;;;;;27.21;15.72;101001.31;4950820;29;20043;-67
2022/03/22 10:30:02;;;;;;;14.60;6.28;;;;;;;26.89;15.96;100997.22;4950790;29;20031;-67
2022/03/22 10:32:32;;;;;;;19.33;5.78;;;;;;;27.27;16.04;100989.84;4950521;29;20183;-67
2022/03/22 10:35:09;;;;;;;13.25;6.30;;;;;;;27.81;15.81;100988.81;4950745;29;20038;-66
2022/03/22 10:37:34;;;;;;;11.40;5.82;;;;;;;28.07;15.21;101000.69;4950971;29;20130;-67
2022/03/22 10:40:00;;;;;;;12.05;5.55;;;;;;;27.72;14.85;100988.91;4950478;29;20174;-67
2022/03/22 10:42:27;;;;;;;13.52;5.10;;;;;;;27.43;15.45;100992.72;4950113;28;20047;-67
2022/03/22 10:44:58;;;;;;;17.70;6.40;;;;;;;27.41;15.57;101001.00;4950358;29;20034;-66
2022/03/22 10:47:26;;;;;;;10.38;6.78;;;;;;;26.69;16.13;100997.34;4950903;29;20387;-67
2022/03/22 10:50:05;;;;;;;16.25;6.55;;;;;;;25.42;16.94;100994.06;4951096;29;20031;-67
2022/03/22 10:52:37;;;;;;;14.32;6.47;;;;;;;24.71;18.26;100991.53;4950428;29;20039;-67
2022/03/22 10:55:03;;;;;;;18.20;6.32;;;;;;;24.35;18.79;100985.69;4950815;29;20034;-66
2022/03/22 10:57:32;;;;;;;22.02;8.55;;;;;;;23.92;19.45;100996.66;4950943;29;20047;-67
2022/03/22 11:00:08;;;;;;;12.75;6.70;;;;;;;23.51;19.80;101001.03;4950850;29;20039;-67
2022/03/22 11:02:37;;;;;;;12.40;7.55;;;;;;;23.00;20.79;100990.94;4950266;29;20495;-67
2022/03/22 11:05:03;;;;;;;11.80;8.43;;;;;;;22.54;21.91;100997.31;4950835;29;20126;-68
2022/03/22 11:07:33;;;;;;;16.88;10.13;;;;;;;22.09;22.63;100988.22;4950789;29;20043;-65
2022/03/22 11:09:58;;;;;;;19.77;9.23;;;;;;;21.67;23.24;100989.75;4950452;29;20554;-66
2022/03/22 11:12:26;;;;;;;17.45;8.98;;;;;;;21.56;23.68;100984.31;4933377;29;20226;-67
2022/03/22 11:14:53;;;;;;;8.60;6.35;;;;;;;21.54;22.22;100980.94;4951379;29;20031;-66
2022/03/22 11:17:20;;;;;;;14.50;6.75;;;;;;;21.29;21.60;100980.06;4950862;29;20403;-68
2022/03/22 11:19:49;;;;;;;12.68;6.35;;;;;;;21.00;21.63;100984.91;4950583;29;20070;-66
2022/03/22 11:22:17;;;;;;;12.55;6.20;;;;;;;20.62;21.85;100985.03;4950387;28;20031;-67
2022/03/22 11:24:42;;;;;;;12.85;6.43;;;;;;;20.43;21.98;100986.31;4954315;29;20047;-66
2022/03/22 11:27:08;;;;;;;18.10;6.57;;;;;;;20.29;21.56;100978.41;4954022;29;20058;-67
2022/03/22 11:29:36;;;;;;;16.92;6.30;;;;;;;20.08;22.62;100989.69;4954035;29;20043;-66
2022/03/22 11:34:50;;;;;;;12.15;6.53;;;;;;;19.98;22.32;100974.34;4954132;29;20070;-67
2022/03/22 11:37:28;;;;;;;16.92;7.10;;;;;;;19.87;22.74;100973.28;4953852;28;20550;-67
2022/03/22 11:42:57;;;;;;;18.83;9.77;;;;;;;19.48;23.63;100979.50;4950597;29;20039;-67
2022/03/22 11:45:24;;;;;;;21.88;9.60;;;;;;;19.18;24.21;100977.91;4953538;28;20484;-66
2022/03/22 11:47:53;;;;;;;47.47;9.77;;;;;;;19.14;24.40;100971.06;4953726;28;20066;-66
2022/03/22 11:50:21;;;;;;;12.55;7.90;;;;;;;19.22;24.78;100982.13;4953779;28;20050;-67
2022/03/22 11:52:52;;;;;;;19.92;8.35;;;;;;;19.32;24.45;100974.34;4951724;28;20276;-66
2022/03/22 11:55:22;;;;;;;24.80;8.57;;;;;;;19.48;24.03;100971.47;4953606;28;20495;-66